Latest Weather Observations for PORTABLE QFRG NR

IDQ60801

Issued at 2:52 pm EST Thursday 28 January 2021 (issued every 10 minutes, with the page automatically refreshed every 10 minutes)

About weather observations | Map of weather stations | Latest weather observations for QLD | Other Formats
Station Details ID: 250061 Name: PORTABLE QFRG Lat: -19.20 Lon: 146.52 Height: 30.0 m

Portable automatic weather stations (PAWS) are operated by other organisations, such as Fire and Emergency Services, and are included here by agreement. Portable stations may be deployed to a location for a short period and their location may be subject to change without notice. Wind observations from these stations are provided from heights of either three (3) or ten (10) metres above ground level (AGL).

Data from the previous 72 hours. | See also: Recent months for locations in Queensland
Date/Time
EST
Temp
°C
App
Temp
°C
Dew
Point
°C
Rel
Hum
%
Delta-T
°C
Wind Press
QNH
hPa
Press
MSL
hPa
Rain since
9am
mm
Dir  Spd
km/h
Gust
km/h
Spd
kts
Gust
kts
28/02:40pm 32.0 34.3 19.8 48 8.1 E 7 11 4 6 - - 0.0
28/02:30pm 32.2 33.9 18.6 44 8.8 ENE 7 11 4 6 - - 0.0
28/02:20pm 31.9 33.4 19.0 46 8.4 NE 9 11 5 6 - - 0.0
28/02:10pm 31.8 33.8 19.2 47 8.2 E 7 11 4 6 - - 0.0
28/02:00pm 31.5 34.0 20.3 51 7.4 E 7 11 4 6 - - 0.0
28/01:50pm 31.6 34.3 20.7 52 7.3 ENE 7 9 4 5 - - 0.0
28/01:40pm 32.4 35.3 21.1 51 7.6 ENE 7 11 4 6 - - 0.0
28/01:30pm 32.3 35.0 21.3 52 7.4 NE 9 11 5 6 - - 0.0
28/01:20pm 32.2 34.4 20.5 50 7.8 NE 9 11 5 6 - - 0.0
28/01:10pm 32.2 35.1 21.1 52 7.5 NE 7 11 4 6 - - 0.0
28/01:00pm 32.1 35.1 21.2 52 7.3 ENE 7 11 4 6 - - 0.0
28/12:50pm 32.2 35.1 21.1 52 7.5 ENE 7 9 4 5 - - 0.0
28/12:40pm 31.9 34.6 20.6 51 7.5 NE 7 9 4 5 - - 0.0
28/12:30pm 31.1 33.7 20.4 53 7.1 NE 7 9 4 5 - - 0.0
28/12:20pm 31.3 34.1 20.8 53 7.0 ENE 7 11 4 6 - - 0.0
28/12:10pm 30.8 33.9 21.5 57 6.3 ENE 7 9 4 5 - - 0.0
28/12:00pm 31.4 34.0 20.5 52 7.3 NE 7 11 4 6 - - 0.0
28/11:50am 31.3 34.5 21.7 56 6.5 ENE 7 11 4 6 - - 0.0
28/11:40am 31.9 35.2 21.5 54 7.0 E 6 7 3 4 - - 0.0
28/11:30am 30.7 33.5 20.4 54 6.8 E 6 7 3 4 - - 0.0
28/11:20am 31.0 34.3 21.4 56 6.5 ENE 6 6 3 3 - - 0.0
28/11:10am 31.6 34.6 21.2 54 7.0 E 7 9 4 5 - - 0.0
28/11:00am 30.9 33.9 20.8 55 6.7 E 6 9 3 5 - - 0.0
28/10:50am 30.0 33.0 20.9 58 6.1 E 6 7 3 4 - - 0.0
28/10:40am 30.2 33.8 21.3 59 6.0 E 4 7 2 4 - - 0.0
28/10:30am 30.2 34.1 21.8 60 5.7 ESE 4 7 2 4 - - 0.0
28/10:20am 30.2 33.9 21.4 59 5.9 E 4 4 2 2 - - 0.0
28/10:10am 30.1 33.3 20.6 56 6.3 E 4 6 2 3 - - 0.0
28/10:00am 29.5 32.3 20.8 59 5.8 SE 7 7 4 4 - - 0.0
28/09:50am 29.9 33.0 21.4 60 5.7 SE 7 11 4 6 - - 0.0
28/09:40am 29.7 32.9 21.3 60 5.6 SE 6 9 3 5 - - 0.0
28/09:30am 29.5 32.5 21.2 61 5.5 SE 7 9 4 5 - - 0.0
28/09:20am 28.8 31.8 21.3 64 5.0 SE 7 9 4 5 - - 0.0
28/09:10am 29.3 32.4 21.5 63 5.2 SE 7 9 4 5 - - 0.0
28/09:00am 29.3 32.3 21.3 62 5.4 ESE 7 11 4 6 - - 0.0
28/08:50am 29.1 32.2 21.4 63 5.2 SE 7 11 4 6 - - 0.0
28/08:40am 28.9 32.1 21.6 64 4.9 ESE 7 7 4 4 - - 0.0
28/08:30am 29.0 32.2 21.7 64 4.9 ESE 7 11 4 6 - - 0.0
28/08:20am 28.8 32.2 21.6 65 4.8 SSE 6 9 3 5 - - 0.0
28/08:10am 28.4 31.5 21.4 66 4.7 SSE 7 9 4 5 - - 0.0
28/08:00am 28.4 31.5 21.4 66 4.7 SE 7 9 4 5 - - 0.0
28/07:50am 28.2 31.5 21.5 67 4.5 SE 6 9 3 5 - - 0.0
28/07:40am 28.0 31.2 21.2 66 4.5 SE 6 7 3 4 - - 0.0
28/07:30am 27.5 30.5 21.2 68 4.2 SE 7 9 4 5 - - 0.0
28/07:20am 27.3 30.4 21.5 70 3.9 SSE 7 7 4 4 - - 0.0
28/07:10am 27.0 30.2 21.2 70 3.9 SE 6 7 3 4 - - 0.0
28/07:00am 26.6 29.9 21.4 73 3.5 SSE 6 7 3 4 - - 0.0
28/06:50am 25.8 29.4 21.3 76 3.0 SSE 4 6 2 3 - - 0.0
28/06:40am 25.0 28.8 21.6 81 2.3 S 4 6 2 3 - - 0.0
28/06:30am 24.3 28.6 21.9 86 1.6 S 2 4 1 2 - - 0.0
28/06:20am 24.0 28.3 22.0 88 1.3 S 2 2 1 1 - - 0.0
28/06:10am 23.8 28.1 22.0 90 1.2 S 2 2 1 1 - - 0.0
28/06:00am 23.8 28.5 22.0 90 1.2 CALM 0 2 0 1 - - 0.0
28/05:50am 23.8 28.6 22.1 90 1.1 CALM 0 2 0 1 - - 0.0
28/05:40am 23.7 28.4 22.0 90 1.1 CALM 0 0 0 0 - - 0.0
28/05:30am 23.7 28.4 22.0 90 1.1 CALM 0 0 0 0 - - 0.0
28/05:20am 23.8 28.5 22.0 90 1.2 CALM 0 0 0 0 - - 0.0
28/05:10am 23.8 28.6 22.1 90 1.1 CALM 0 0 0 0 - - 0.0
28/05:00am 23.8 28.6 22.1 90 1.1 CALM 0 2 0 1 - - 0.0
28/04:50am 23.8 28.6 22.1 90 1.1 CALM 0 0 0 0 - - 0.0
28/04:40am 23.8 28.6 22.1 90 1.1 CALM 0 0 0 0 - - 0.0
28/04:30am 23.8 28.6 22.1 90 1.1 CALM 0 0 0 0 - - 0.0
28/04:20am 23.8 28.5 22.0 90 1.2 CALM 0 2 0 1 - - 0.0
28/04:10am 23.8 28.2 22.1 90 1.1 S 2 4 1 2 - - 0.0
28/04:00am 23.8 28.2 22.1 90 1.1 SSW 2 4 1 2 - - 0.0
28/03:50am 23.8 28.2 22.1 90 1.1 SW 2 2 1 1 - - 0.0
28/03:40am 23.8 28.2 22.1 90 1.1 SW 2 4 1 2 - - 0.0
28/03:30am 23.9 28.7 22.1 90 1.2 CALM 0 2 0 1 - - 0.0
28/03:20am 23.9 28.7 22.2 90 1.1 CALM 0 2 0 1 - - 0.0
28/03:10am 23.9 28.7 22.2 90 1.1 CALM 0 0 0 0 - - 0.0
28/03:00am 23.9 28.7 22.2 90 1.1 CALM 0 2 0 1 - - 0.0
28/02:50am 23.9 28.7 22.2 90 1.1 CALM 0 0 0 0 - - 0.0
28/02:40am 24.0 28.9 22.3 90 1.1 CALM 0 0 0 0 - - 0.0
28/02:30am 24.0 28.8 22.2 90 1.2 CALM 0 2 0 1 - - 0.0
28/02:20am 24.0 28.5 22.3 90 1.1 WSW 2 4 1 2 - - 0.0
28/02:10am 24.0 28.5 22.2 90 1.2 SW 2 4 1 2 - - 0.0
28/02:00am 23.9 28.7 22.2 90 1.1 CALM 0 2 0 1 - - 0.0
28/01:50am 24.0 28.8 22.2 90 1.2 CALM 0 0 0 0 - - 0.0
28/01:40am 24.0 28.8 22.2 90 1.2 CALM 0 0 0 0 - - 0.0
28/01:30am 24.2 29.1 22.3 89 1.3 CALM 0 0 0 0 - - 0.0
28/01:20am 24.3 28.9 22.4 89 1.3 SSW 2 2 1 1 - - 0.0
28/01:10am 24.3 29.3 22.5 90 1.2 CALM 0 2 0 1 - - 0.0
28/01:00am 24.4 29.4 22.5 89 1.3 CALM 0 0 0 0 - - 0.0
28/12:50am 24.5 29.6 22.6 89 1.3 CALM 0 2 0 1 - - 0.0
28/12:40am 24.6 29.7 22.7 89 1.3 CALM 0 2 0 1 - - 0.0
28/12:30am 24.6 29.4 22.8 90 1.2 WSW 2 4 1 2 - - 0.0
28/12:20am 24.6 29.3 22.7 89 1.3 SW 2 4 1 2 - - 0.0
28/12:10am 24.7 29.8 22.7 89 1.3 CALM 0 2 0 1 - - 0.0
28/12:00am 24.7 29.5 22.8 89 1.3 SW 2 4 1 2 - - 0.0
 
Date/Time
EST
Temp
°C
App
Temp
°C
Dew
Point
°C
Rel
Hum
%
Delta-T
°C
Wind Press
QNH
hPa
Press
MSL
hPa
Rain since
9am
mm
Dir  Spd
km/h
Gust
km/h
Spd
kts
Gust
kts
27/11:50pm 24.8 29.6 22.9 89 1.3 SW 2 4 1 2 - - 0.0
27/11:40pm 24.9 29.7 22.9 89 1.4 SW 2 4 1 2 - - 0.0
27/11:30pm 24.9 30.2 23.0 89 1.3 CALM 0 2 0 1 - - 0.0
27/11:20pm 25.0 30.3 23.1 89 1.3 CALM 0 0 0 0 - - 0.0
27/11:10pm 25.0 30.3 23.1 89 1.3 CALM 0 0 0 0 - - 0.0
27/11:00pm 24.9 30.2 23.0 89 1.3 CALM 0 0 0 0 - - 0.0
27/10:50pm 24.8 30.0 22.9 89 1.3 CALM 0 2 0 1 - - 0.0
27/10:40pm 24.9 30.1 22.9 89 1.4 CALM 0 0 0 0 - - 0.0
27/10:30pm 25.0 30.3 23.0 89 1.4 CALM 0 0 0 0 - - 0.0
27/10:20pm 25.1 30.4 23.0 88 1.4 CALM 0 0 0 0 - - 0.0
27/10:10pm 25.1 30.4 23.0 88 1.4 CALM 0 0 0 0 - - 0.0
27/10:00pm 25.1 30.4 23.0 88 1.4 CALM 0 0 0 0 - - 0.0
27/09:50pm 25.2 30.5 23.0 87 1.5 CALM 0 0 0 0 - - 0.0
27/09:40pm 25.3 30.6 23.0 87 1.6 CALM 0 0 0 0 - - 0.0
27/09:30pm 25.4 30.7 23.0 86 1.6 CALM 0 0 0 0 - - 0.0
27/09:20pm 25.5 30.8 23.1 86 1.6 CALM 0 0 0 0 - - 0.0
27/09:10pm 25.6 30.9 23.1 86 1.7 CALM 0 0 0 0 - - 0.0
27/09:00pm 25.7 31.1 23.2 86 1.7 CALM 0 2 0 1 - - 0.0
27/08:50pm 25.7 31.1 23.2 86 1.7 CALM 0 2 0 1 - - 0.0
27/08:40pm 25.8 31.2 23.2 85 1.8 CALM 0 0 0 0 - - 0.0
27/08:30pm 25.9 31.2 23.1 84 1.9 CALM 0 0 0 0 - - 0.0
27/08:20pm 26.1 31.5 23.2 84 2.0 CALM 0 0 0 0 - - 0.0
27/08:10pm 26.3 31.7 23.2 83 2.1 CALM 0 0 0 0 - - 0.0
27/08:00pm 26.5 31.9 23.2 82 2.2 CALM 0 0 0 0 - - 0.0
27/07:50pm 26.7 32.0 23.1 80 2.5 CALM 0 2 0 1 - - 0.0
27/07:40pm 26.9 32.3 23.2 80 2.5 CALM 0 0 0 0 - - 0.0
27/07:30pm 27.0 31.7 22.7 77 2.9 NE 2 4 1 2 - - 0.0
27/07:20pm 27.1 31.9 22.9 78 2.9 NNE 2 4 1 2 - - 0.0
27/07:10pm 27.2 32.2 23.2 79 2.7 NE 2 2 1 1 - - 0.0
27/07:00pm 27.4 32.1 23.3 78 2.8 NNE 4 4 2 2 - - 0.0
27/06:50pm 27.6 32.2 23.2 77 3.0 NNE 4 4 2 2 - - 0.0
27/06:40pm 27.7 32.2 23.0 75 3.2 NNE 4 6 2 3 - - 0.0
27/06:30pm 27.8 32.4 23.1 75 3.2 NNE 4 6 2 3 - - 0.0
27/06:20pm 27.9 32.4 22.9 74 3.4 NNE 4 6 2 3 - - 0.0
27/06:10pm 28.0 32.1 22.9 74 3.5 NNE 6 7 3 4 - - 0.0
27/06:00pm 28.1 32.3 23.1 74 3.4 NE 6 7 3 4 - - 0.0
27/05:50pm 28.2 32.2 23.1 74 3.5 NNE 7 9 4 5 - - 0.0
27/05:40pm 28.4 32.4 22.8 71 3.8 NE 6 7 3 4 - - 0.0
27/05:30pm 28.5 32.0 21.8 67 4.5 NE 6 9 3 5 - - 0.0
27/05:20pm 28.8 32.4 22.1 67 4.5 NE 6 7 3 4 - - 0.0
27/05:10pm 29.1 32.8 22.6 68 4.4 NE 7 13 4 7 - - 0.0
27/05:00pm 29.7 33.2 22.1 63 5.1 NE 7 13 4 7 - - 0.0
27/04:50pm 29.9 33.7 22.4 64 5.1 NE 6 7 3 4 - - 0.0
27/04:40pm 29.7 33.4 22.5 65 4.9 NNE 7 11 4 6 - - 0.0
27/04:30pm 29.3 32.9 22.3 66 4.7 NNE 7 11 4 6 - - 0.0
27/04:20pm 29.4 32.7 22.6 67 4.6 NNE 9 13 5 7 - - 0.0
27/04:10pm 29.6 33.5 22.9 67 4.6 NNE 7 11 4 6 - - 0.0
27/04:00pm 29.7 33.5 22.7 66 4.8 NNE 7 9 4 5 - - 0.0
27/03:50pm 29.6 33.0 22.0 63 5.1 NNE 7 9 4 5 - - 0.0
27/03:40pm 29.9 33.2 21.4 60 5.7 NE 6 7 3 4 - - 0.0
27/03:30pm 30.0 32.9 21.1 59 5.9 NE 7 11 4 6 - - 0.0
27/03:20pm 30.2 33.2 21.9 61 5.6 NNE 9 11 5 6 - - 0.0
27/03:10pm 30.0 33.1 22.2 63 5.3 NNE 9 13 5 7 - - 0.0
27/03:00pm 30.3 32.9 21.9 60 5.7 NNE 11 13 6 7 - - 0.0
27/02:50pm 30.7 33.6 22.4 61 5.7 NNE 11 15 6 8 - - 0.0
27/02:40pm 31.4 34.5 22.9 60 5.8 NNE 11 15 6 8 - - 0.0
27/02:30pm 31.4 33.4 22.2 58 6.3 NNE 15 19 8 10 - - 0.0
27/02:20pm 31.7 34.0 22.1 56 6.5 NNE 13 17 7 9 - - 0.0
27/02:10pm 31.9 34.4 21.8 55 6.8 N 11 17 6 9 - - 0.0
27/02:00pm 31.7 34.2 22.5 58 6.3 N 13 15 7 8 - - 0.0
27/01:50pm 31.9 35.1 22.3 56 6.6 NNE 9 11 5 6 - - 0.0
27/01:40pm 32.0 36.0 23.1 59 6.1 NNE 7 13 4 7 - - 0.0
27/01:30pm 31.5 34.8 22.6 59 6.1 NNE 9 11 5 6 - - 0.0
27/01:20pm 31.5 34.3 21.6 55 6.7 NNE 9 15 5 8 - - 0.0
27/01:10pm 31.4 34.7 22.5 59 6.1 NNE 9 15 5 8 - - 0.0
27/01:00pm 31.4 34.6 21.7 56 6.6 NNE 7 9 4 5 - - 0.0
27/12:50pm 31.2 34.5 21.4 56 6.6 ENE 6 7 3 4 - - 0.0
27/12:40pm 30.7 33.7 21.3 57 6.3 NNE 7 13 4 7 - - 0.0
27/12:30pm 30.7 33.6 21.7 58 6.1 NNE 9 13 5 7 - - 0.0
27/12:20pm 31.0 34.1 22.2 59 6.0 NNE 9 11 5 6 - - 0.0
27/12:10pm 31.2 34.2 22.6 60 5.9 NNE 11 13 6 7 - - 0.0
27/12:00pm 32.5 35.9 21.7 53 7.3 ENE 6 7 3 4 - - 0.0
27/11:50am 31.8 35.0 21.2 53 7.1 ENE 6 7 3 4 - - 0.0
27/11:40am 30.6 33.6 21.3 57 6.2 NNE 7 11 4 6 - - 0.0
27/11:30am 30.7 33.6 20.7 55 6.7 ESE 6 7 3 4 - - 0.0
27/11:20am 30.7 33.8 21.0 56 6.5 E 6 7 3 4 - - 0.0
27/11:10am 30.7 34.3 21.3 57 6.3 NE 4 7 2 4 - - 0.0
27/11:00am 30.8 34.7 22.6 61 5.6 NE 6 7 3 4 - - 0.0
27/10:50am 30.6 34.3 21.5 58 6.1 NNE 4 6 2 3 - - 0.0
27/10:40am 30.6 34.6 22.1 60 5.8 NE 4 7 2 4 - - 0.0
27/10:30am 30.6 34.5 21.9 59 5.9 S 4 6 2 3 - - 0.0
27/10:20am 30.2 33.7 21.8 60 5.7 S 6 7 3 4 - - 0.0
27/10:10am 30.1 34.1 22.0 62 5.5 SE 4 6 2 3 - - 0.0
27/10:00am 29.6 33.7 22.3 65 5.0 ESE 4 7 2 4 - - 0.0
27/09:50am 29.5 33.4 21.9 63 5.1 ESE 4 6 2 3 - - 0.0
27/09:40am 29.4 33.3 21.9 64 5.1 SSE 4 7 2 4 - - 0.0
27/09:30am 29.0 33.0 22.0 66 4.7 ENE 4 6 2 3 - - 0.0
27/09:20am 28.9 33.0 22.3 67 4.5 SE 4 6 2 3 - - 0.0
27/09:10am 28.8 33.0 22.5 68 4.3 E 4 6 2 3 - - 0.0
27/09:00am 28.5 32.6 22.3 69 4.2 SE 4 6 2 3 - - 0.0
27/08:50am 28.2 32.5 22.7 72 3.7 SE 4 6 2 3 - - 0.0
27/08:40am 27.8 32.1 22.6 73 3.5 S 4 6 2 3 - - 0.0
27/08:30am 27.7 32.0 22.6 74 3.5 SSE 4 6 2 3 - - 0.0
27/08:20am 27.3 31.5 22.5 75 3.2 SE 4 6 2 3 - - 0.0
27/08:10am 27.0 31.9 23.0 79 2.7 SSE 2 4 1 2 - - 0.0
27/08:00am 26.6 31.4 22.9 80 2.5 SSE 2 2 1 1 - - 0.0
27/07:50am 26.3 31.4 22.7 80 2.4 CALM 0 4 0 2 - - 0.0
27/07:40am 26.0 30.8 22.9 83 2.1 SSW 2 4 1 2 - - 0.0
27/07:30am 25.9 31.1 22.8 83 2.1 CALM 0 4 0 2 - - 0.0
27/07:20am 25.7 30.9 22.8 84 2.0 CALM 0 2 0 1 - - 0.0
27/07:10am 25.5 30.6 22.6 84 2.0 CALM 0 2 0 1 - - 0.0
27/07:00am 25.4 30.1 22.6 84 1.9 SW 2 4 1 2 - - 0.0
27/06:50am 25.0 29.6 22.5 86 1.7 SSW 2 2 1 1 - - 0.0
27/06:40am 24.4 28.9 22.3 88 1.4 SW 2 4 1 2 - - 0.0
27/06:30am 24.1 28.9 22.1 88 1.3 CALM 0 2 0 1 - - 0.0
27/06:20am 23.8 28.1 21.9 89 1.3 SW 2 4 1 2 - - 0.0
27/06:10am 23.7 27.9 21.8 89 1.3 SSW 2 4 1 2 - - 0.0
27/06:00am 23.6 28.2 21.7 89 1.3 CALM 0 0 0 0 - - 0.0
27/05:50am 23.6 28.2 21.7 89 1.3 CALM 0 0 0 0 - - 0.0
27/05:40am 23.7 28.3 21.8 89 1.3 CALM 0 0 0 0 - - 0.0
27/05:30am 23.7 28.3 21.8 89 1.3 CALM 0 0 0 0 - - 0.0
27/05:20am 23.7 28.3 21.8 89 1.3 CALM 0 0 0 0 - - 0.0
27/05:10am 23.8 28.4 21.8 88 1.3 CALM 0 0 0 0 - - 0.0
27/05:00am 23.8 28.4 21.8 88 1.3 CALM 0 0 0 0 - - 0.0
27/04:50am 23.8 28.4 21.7 88 1.4 CALM 0 0 0 0 - - 0.0
27/04:40am 23.9 28.5 21.8 88 1.4 CALM 0 0 0 0 - - 0.0
27/04:30am 24.0 28.2 21.8 87 1.5 SSW 2 2 1 1 - - 0.0
27/04:20am 24.0 28.3 21.9 88 1.4 S 2 4 1 2 - - 0.0
27/04:10am 24.1 28.0 21.9 87 1.5 SSE 4 4 2 2 - - 0.0
27/04:00am 24.0 28.3 21.9 88 1.4 SW 2 4 1 2 - - 0.0
27/03:50am 23.9 28.6 21.9 88 1.3 CALM 0 2 0 1 - - 0.0
27/03:40am 23.8 28.4 21.8 88 1.3 CALM 0 2 0 1 - - 0.0
27/03:30am 23.8 28.4 21.7 88 1.4 CALM 0 0 0 0 - - 0.0
27/03:20am 23.8 28.4 21.7 88 1.4 CALM 0 0 0 0 - - 0.0
27/03:10am 23.9 28.5 21.7 87 1.5 CALM 0 0 0 0 - - 0.0
27/03:00am 24.0 28.2 21.7 87 1.5 WSW 2 2 1 1 - - 0.0
27/02:50am 24.0 28.6 21.8 87 1.5 CALM 0 2 0 1 - - 0.0
27/02:40am 24.0 28.2 21.8 87 1.5 S 2 4 1 2 - - 0.0
27/02:30am 24.0 28.2 21.8 87 1.5 SW 2 4 1 2 - - 0.0
27/02:20am 24.0 28.2 21.8 87 1.5 SSW 2 4 1 2 - - 0.0
27/02:10am 24.0 28.7 21.9 88 1.4 CALM 0 4 0 2 - - 0.0
27/02:00am 24.0 28.7 21.9 88 1.4 CALM 0 4 0 2 - - 0.0
27/01:50am 24.0 28.7 21.9 88 1.4 CALM 0 0 0 0 - - 0.0
27/01:40am 24.0 28.7 21.9 88 1.4 CALM 0 2 0 1 - - 0.0
27/01:30am 24.0 28.3 21.9 88 1.4 SW 2 4 1 2 - - 0.0
27/01:20am 24.0 28.7 22.0 88 1.3 CALM 0 0 0 0 - - 0.0
27/01:10am 24.0 28.7 21.9 88 1.4 CALM 0 0 0 0 - - 0.0
27/01:00am 24.1 28.8 22.0 88 1.4 CALM 0 2 0 1 - - 0.0
27/12:50am 24.1 28.4 22.0 88 1.4 SSW 2 4 1 2 - - 0.0
27/12:40am 24.1 28.8 22.0 88 1.4 CALM 0 4 0 2 - - 0.0
27/12:30am 24.1 28.8 22.0 88 1.4 CALM 0 0 0 0 - - 0.0
27/12:20am 24.2 28.9 22.0 87 1.5 CALM 0 0 0 0 - - 0.0
27/12:10am 24.2 28.9 22.0 87 1.5 CALM 0 0 0 0 - - 0.0
27/12:00am 24.3 29.0 22.0 87 1.5 CALM 0 0 0 0 - - 0.0
 
Date/Time
EST
Temp
°C
App
Temp
°C
Dew
Point
°C
Rel
Hum
%
Delta-T
°C
Wind Press
QNH
hPa
Press
MSL
hPa
Rain since
9am
mm
Dir  Spd
km/h
Gust
km/h
Spd
kts
Gust
kts
26/11:50pm 24.4 29.1 22.0 86 1.6 CALM 0 0 0 0 - - 0.0
26/11:40pm 24.5 29.3 22.1 86 1.6 CALM 0 0 0 0 - - 0.0
26/11:30pm 24.6 29.4 22.1 86 1.7 CALM 0 0 0 0 - - 0.0
26/11:20pm 24.6 29.4 22.1 86 1.7 CALM 0 2 0 1 - - 0.0
26/11:10pm 24.7 29.5 22.1 85 1.7 CALM 0 0 0 0 - - 0.0
26/11:00pm 24.7 29.5 22.2 86 1.7 CALM 0 2 0 1 - - 0.0
26/10:50pm 24.7 29.2 22.2 86 1.7 SW 2 4 1 2 - - 0.0
26/10:40pm 24.7 29.2 22.3 86 1.6 S 2 4 1 2 - - 0.0
26/10:30pm 24.7 29.6 22.4 87 1.5 CALM 0 0 0 0 - - 0.0
26/10:20pm 24.8 29.7 22.4 86 1.6 CALM 0 0 0 0 - - 0.0
26/10:10pm 24.8 29.7 22.4 86 1.6 CALM 0 0 0 0 - - 0.0
26/10:00pm 24.9 29.8 22.3 85 1.7 CALM 0 0 0 0 - - 0.0
26/09:50pm 25.1 29.9 22.2 84 1.9 CALM 0 0 0 0 - - 0.0
26/09:40pm 25.2 30.1 22.3 84 1.9 CALM 0 0 0 0 - - 0.0
26/09:30pm 25.3 30.2 22.3 83 2.0 CALM 0 0 0 0 - - 0.0
26/09:20pm 25.3 30.2 22.3 83 2.0 CALM 0 0 0 0 - - 0.0
26/09:10pm 25.4 30.3 22.3 83 2.1 CALM 0 0 0 0 - - 0.0
26/09:00pm 25.6 30.5 22.3 82 2.2 CALM 0 0 0 0 - - 0.0
26/08:50pm 25.8 30.8 22.5 82 2.2 CALM 0 0 0 0 - - 0.0
26/08:40pm 26.0 30.8 22.2 79 2.6 CALM 0 0 0 0 - - 0.0
26/08:30pm 26.0 30.7 22.0 78 2.7 CALM 0 0 0 0 - - 0.0
26/08:20pm 26.1 30.7 21.7 77 2.9 CALM 0 0 0 0 - - 0.0
26/08:10pm 26.3 30.9 21.7 76 3.1 CALM 0 0 0 0 - - 0.0
26/08:00pm 26.4 31.0 21.7 75 3.1 CALM 0 0 0 0 - - 0.0
26/07:50pm 26.5 30.6 21.6 74 3.3 NE 2 2 1 1 - - 0.0
26/07:40pm 26.5 30.7 21.8 75 3.1 NNE 2 4 1 2 - - 0.0
26/07:30pm 26.6 30.8 21.7 74 3.3 NE 2 4 1 2 - - 0.0
26/07:20pm 26.6 30.9 22.0 76 3.1 NNE 2 4 1 2 - - 0.0
26/07:10pm 26.8 30.9 22.2 76 3.1 NNE 4 4 2 2 - - 0.0
26/07:00pm 27.1 30.8 22.3 75 3.2 NNE 6 7 3 4 - - 0.0
26/06:50pm 27.4 30.7 21.8 71 3.8 NNE 7 9 4 5 - - 0.0
26/06:40pm 27.5 30.9 22.0 72 3.7 N 7 9 4 5 - - 0.0
26/06:30pm 27.7 31.2 22.1 71 3.8 N 7 11 4 6 - - 0.0
26/06:20pm 28.0 30.9 21.8 69 4.2 N 9 13 5 7 - - 0.0
26/06:10pm 28.4 30.8 21.6 66 4.6 N 11 11 6 6 - - 0.0
26/06:00pm 28.7 31.7 21.9 66 4.6 NNE 9 11 5 6 - - 0.0
26/05:50pm 28.5 31.8 21.8 67 4.5 NNE 7 9 4 5 - - 0.0
26/05:40pm 28.9 31.7 21.6 64 4.9 NNE 9 11 5 6 - - 0.0
26/05:30pm 28.9 31.8 21.8 65 4.8 NNE 9 11 5 6 - - 0.0
26/05:20pm 29.0 32.1 21.4 63 5.1 NNE 7 11 4 6 - - 0.0
26/05:10pm 29.0 31.3 21.3 63 5.1 NNE 11 13 6 7 - - 0.0
26/05:00pm 29.0 31.4 21.6 64 5.0 NNE 11 13 6 7 - - 0.0
26/04:50pm 29.6 31.7 21.7 62 5.3 N 13 15 7 8 - - 0.0
26/04:40pm 29.9 32.4 21.7 61 5.5 NNE 11 13 6 7 - - 0.0
26/04:30pm 30.0 32.4 22.2 63 5.3 NNE 13 15 7 8 - - 0.0
26/04:20pm 30.0 32.5 21.0 58 6.0 NNE 9 13 5 7 - - 0.0
26/04:10pm 30.3 33.1 21.5 59 5.9 NNE 9 13 5 7 - - 0.0
26/04:00pm 30.6 33.5 21.0 56 6.4 NE 7 11 4 6 - - 0.0
26/03:50pm 30.3 33.6 21.8 60 5.7 NNE 7 13 4 7 - - 0.0
26/03:40pm 30.6 33.6 21.2 57 6.3 NE 7 15 4 8 - - 0.0
26/03:30pm 30.8 34.0 21.3 57 6.4 NE 6 7 3 4 - - 0.0
26/03:20pm 30.9 34.1 21.7 58 6.2 NE 7 11 4 6 - - 0.0
26/03:10pm 31.5 34.9 21.6 55 6.7 ENE 6 9 3 5 - - 0.0
26/03:00pm 31.4 34.6 21.3 55 6.8 NE 6 7 3 4 - - 0.0
26/02:50pm 31.2 33.9 20.6 53 7.1 NNE 7 11 4 6 - - 0.0
26/02:40pm 31.5 34.8 21.5 55 6.7 NE 6 9 3 5 - - 0.0
26/02:30pm 31.5 34.7 21.6 55 6.7 NE 7 9 4 5 - - 0.0
26/02:20pm 31.4 34.7 21.9 57 6.4 NE 7 13 4 7 - - 0.0
26/02:10pm 31.9 34.8 21.1 52 7.3 NE 7 11 4 6 - - 0.0
26/02:00pm 32.1 34.8 20.7 51 7.6 NE 7 13 4 7 - - 0.0
26/01:50pm 31.9 34.9 21.2 53 7.2 NE 7 13 4 7 - - 0.0
26/01:40pm 31.9 34.8 20.7 51 7.5 NE 6 9 3 5 - - 0.0
26/01:30pm 31.3 34.4 21.5 56 6.6 NNE 7 11 4 6 - - 0.0
26/01:20pm 31.5 34.5 21.2 54 6.9 NE 7 13 4 7 - - 0.0
26/01:10pm 30.9 34.1 22.4 60 5.8 N 9 11 5 6 - - 0.0
26/01:00pm 31.4 33.6 20.4 52 7.3 NNE 9 11 5 6 - - 0.0
26/12:50pm 31.4 34.5 21.5 55 6.7 NE 7 9 4 5 - - 0.0
26/12:40pm 30.8 33.3 21.8 58 6.1 N 11 13 6 7 - - 0.0
26/12:30pm 31.0 33.6 21.9 58 6.2 N 11 13 6 7 - - 0.0
26/12:20pm 30.9 33.6 21.3 56 6.4 NNE 9 15 5 8 - - 0.0
26/12:10pm 31.1 34.7 22.4 60 5.9 NE 7 11 4 6 - - 0.0
26/12:00pm 30.9 33.3 21.6 57 6.3 N 11 13 6 7 - - 0.0
26/11:50am 30.8 33.2 21.6 58 6.2 NNE 11 15 6 8 - - 0.0
26/11:40am 30.9 33.4 21.7 58 6.2 NNE 11 15 6 8 - - 0.0
26/11:30am 30.5 33.2 21.4 58 6.1 NNE 9 15 5 8 - - 0.0
26/11:20am 31.1 34.6 21.9 58 6.2 NE 6 7 3 4 - - 0.0
26/11:10am 31.0 34.1 21.4 56 6.5 ENE 7 9 4 5 - - 0.0
26/11:00am 30.6 33.9 21.5 58 6.1 NE 6 13 3 7 - - 0.0
26/10:50am 29.6 32.7 22.1 64 5.1 NE 9 13 5 7 - - 0.0
26/10:40am 29.7 33.0 21.4 61 5.6 NE 6 7 3 4 - - 0.0
26/10:30am 30.0 33.3 21.9 62 5.5 NE 7 13 4 7 - - 0.0
26/10:20am 30.4 34.0 22.4 62 5.4 N 7 11 4 6 - - 0.0
26/10:10am 30.9 34.9 22.7 61 5.6 ENE 6 7 3 4 - - 0.0
26/10:00am 30.6 33.8 21.2 57 6.3 ENE 6 7 3 4 - - 0.0
26/09:50am 29.9 33.1 20.4 56 6.3 E 4 6 2 3 - - 0.0
26/09:40am 30.1 33.5 21.0 58 6.1 E 4 6 2 3 - - 0.0
26/09:30am 29.6 33.0 21.0 60 5.7 E 4 6 2 3 - - 0.0
26/09:20am 29.8 33.6 21.6 61 5.5 E 4 4 2 2 - - 0.0
26/09:10am 29.5 33.0 21.8 63 5.2 E 6 7 3 4 - - 0.0
26/09:00am 28.7 32.6 21.2 64 5.0 E 2 6 1 3 - - 0.0
26/08:50am 29.1 32.8 21.4 63 5.2 ENE 4 6 2 3 - - 0.0
26/08:40am 28.8 32.5 21.5 64 4.9 E 4 6 2 3 - - 0.0
26/08:30am 27.9 32.5 22.5 72 3.7 WSW 2 4 1 2 - - 0.0
26/08:20am 27.6 32.3 22.0 71 3.8 CALM 0 2 0 1 - - 0.0
26/08:10am 27.8 32.1 22.0 70 3.9 WNW 2 4 1 2 - - 0.0
26/08:00am 27.9 32.5 22.5 72 3.7 NNW 2 4 1 2 - - 0.0
26/07:50am 27.6 32.0 22.1 72 3.7 NNE 2 2 1 1 - - 0.0
26/07:40am 27.1 32.1 22.5 76 3.1 CALM 0 2 0 1 - - 0.0
26/07:30am 26.4 30.5 22.2 78 2.8 WNW 4 4 2 2 - - 0.0
26/07:20am 26.1 30.6 22.3 79 2.6 WNW 2 4 1 2 - - 0.0
26/07:10am 25.7 30.7 22.5 82 2.2 CALM 0 2 0 1 - - 0.0
26/07:00am 24.8 29.3 22.2 85 1.7 SW 2 2 1 1 - - 0.0
26/06:50am 24.0 28.3 22.0 88 1.3 WSW 2 4 1 2 - - 0.0
26/06:40am 23.4 27.5 21.6 90 1.2 SSW 2 4 1 2 - - 0.0
26/06:30am 23.0 27.4 21.3 90 1.1 CALM 0 2 0 1 - - 0.0
26/06:20am 22.9 27.2 21.1 89 1.2 CALM 0 2 0 1 - - 0.0
26/06:10am 22.8 27.1 21.1 90 1.1 CALM 0 2 0 1 - - 0.0
26/06:00am 22.7 26.9 21.0 90 1.1 CALM 0 0 0 0 - - 0.0
26/05:50am 22.7 26.9 21.0 90 1.1 CALM 0 2 0 1 - - 0.0
26/05:40am 22.7 26.9 21.0 90 1.1 CALM 0 2 0 1 - - 0.0
26/05:30am 22.8 27.0 21.0 89 1.2 CALM 0 0 0 0 - - 0.0
26/05:20am 22.8 27.1 21.1 90 1.1 CALM 0 2 0 1 - - 0.0
26/05:10am 22.8 27.1 21.1 90 1.1 CALM 0 0 0 0 - - 0.0
26/05:00am 22.9 27.2 21.1 89 1.2 CALM 0 2 0 1 - - 0.0
26/04:50am 22.9 27.2 21.2 90 1.1 CALM 0 2 0 1 - - 0.0
26/04:40am 22.9 26.8 21.2 90 1.1 WSW 2 4 1 2 - - 0.0
26/04:30am 22.9 27.2 21.2 90 1.1 CALM 0 2 0 1 - - 0.0
26/04:20am 23.0 27.3 21.2 89 1.2 CALM 0 0 0 0 - - 0.0
26/04:10am 23.0 26.6 21.3 90 1.1 SSW 4 4 2 2 - - 0.0
26/04:00am 23.0 27.0 21.3 90 1.1 SSW 2 4 1 2 - - 0.0
26/03:50am 23.1 27.4 21.2 89 1.2 CALM 0 0 0 0 - - 0.0
26/03:40am 23.1 27.1 21.3 90 1.2 SSW 2 2 1 1 - - 0.0
26/03:30am 23.1 27.1 21.4 90 1.1 SW 2 4 1 2 - - 0.0
26/03:20am 23.1 27.1 21.4 90 1.1 SSW 2 4 1 2 - - 0.0
26/03:10am 23.1 27.1 21.4 90 1.1 SW 2 4 1 2 - - 0.0
26/03:00am 23.1 27.1 21.4 90 1.1 SSW 2 2 1 1 - - 0.0
26/02:50am 23.1 27.1 21.3 90 1.2 SSW 2 4 1 2 - - 0.0
26/02:40am 23.0 27.3 21.2 89 1.2 CALM 0 0 0 0 - - 0.0
26/02:30am 23.1 27.5 21.3 90 1.2 CALM 0 0 0 0 - - 0.0
26/02:20am 23.2 27.6 21.4 90 1.2 CALM 0 0 0 0 - - 0.0
26/02:10am 23.2 27.7 21.5 90 1.1 CALM 0 0 0 0 - - 0.0
26/02:00am 23.3 27.8 21.5 90 1.2 CALM 0 2 0 1 - - 0.0
26/01:50am 23.4 27.9 21.6 90 1.2 CALM 0 0 0 0 - - 0.0
26/01:40am 23.4 27.9 21.6 90 1.2 CALM 0 0 0 0 - - 0.0
26/01:30am 23.4 27.9 21.6 90 1.2 CALM 0 0 0 0 - - 0.0
26/01:20am 23.4 27.9 21.6 90 1.2 CALM 0 2 0 1 - - 0.0
26/01:10am 23.4 27.9 21.6 90 1.2 CALM 0 4 0 2 - - 0.0
26/01:00am 23.4 27.9 21.6 90 1.2 CALM 0 0 0 0 - - 0.0
26/12:50am 23.4 27.9 21.6 90 1.2 CALM 0 4 0 2 - - 0.0
26/12:40am 23.4 27.9 21.5 89 1.3 CALM 0 4 0 2 - - 0.0
26/12:30am 23.4 27.9 21.5 89 1.3 CALM 0 0 0 0 - - 0.0
26/12:20am 23.5 28.0 21.5 88 1.3 CALM 0 2 0 1 - - 0.0
26/12:10am 23.6 28.2 21.7 89 1.3 CALM 0 2 0 1 - - 0.0
26/12:00am 23.6 28.2 21.7 89 1.3 CALM 0 0 0 0 - - 0.0
 
Date/Time
EST
Temp
°C
App
Temp
°C
Dew
Point
°C
Rel
Hum
%
Delta-T
°C
Wind Press
QNH
hPa
Press
MSL
hPa
Rain since
9am
mm
Dir  Spd
km/h
Gust
km/h
Spd
kts
Gust
kts
25/11:50pm 23.7 28.3 21.7 88 1.3 CALM 0 0 0 0 - - 0.0
25/11:40pm 23.7 28.3 21.7 88 1.3 CALM 0 0 0 0 - - 0.0
25/11:30pm 23.8 28.4 21.8 88 1.3 CALM 0 0 0 0 - - 0.0
25/11:20pm 23.9 28.5 21.8 88 1.4 CALM 0 0 0 0 - - 0.0
25/11:10pm 24.1 28.8 21.9 87 1.5 CALM 0 0 0 0 - - 0.0
25/11:00pm 24.1 28.8 22.0 88 1.4 CALM 0 0 0 0 - - 0.0
25/10:50pm 24.2 28.9 21.9 87 1.5 CALM 0 2 0 1 - - 0.0
25/10:40pm 24.3 29.0 22.0 87 1.5 CALM 0 0 0 0 - - 0.0
25/10:30pm 24.4 29.2 22.2 87 1.5 CALM 0 4 0 2 - - 0.0
25/10:20pm 24.4 29.2 22.2 87 1.5 CALM 0 2 0 1 - - 0.0
25/10:10pm 24.3 29.1 22.1 87 1.5 CALM 0 0 0 0 - - 0.0
25/10:00pm 24.3 29.1 22.1 87 1.5 CALM 0 0 0 0 - - 0.0
25/09:50pm 24.3 29.0 22.0 87 1.5 CALM 0 0 0 0 - - 0.0
25/09:40pm 24.3 29.1 22.1 87 1.5 CALM 0 0 0 0 - - 0.0
25/09:30pm 24.4 29.2 22.1 87 1.5 CALM 0 0 0 0 - - 0.0
25/09:20pm 24.5 29.3 22.2 87 1.5 CALM 0 0 0 0 - - 0.0
25/09:10pm 24.5 29.3 22.2 87 1.5 CALM 0 0 0 0 - - 0.0
25/09:00pm 24.7 29.5 22.2 86 1.7 CALM 0 0 0 0 - - 0.0
25/08:50pm 24.8 29.6 22.1 85 1.8 CALM 0 0 0 0 - - 0.0
25/08:40pm 25.0 29.8 22.2 84 1.9 CALM 0 0 0 0 - - 0.0
25/08:30pm 25.1 30.0 22.3 84 1.9 CALM 0 4 0 2 - - 0.0
25/08:20pm 25.2 30.1 22.3 84 1.9 CALM 0 0 0 0 - - 0.0
25/08:10pm 25.4 30.3 22.3 83 2.1 CALM 0 0 0 0 - - 0.0
25/08:00pm 25.5 30.3 22.2 82 2.2 CALM 0 2 0 1 - - 0.0
25/07:50pm 25.7 30.5 22.1 80 2.4 CALM 0 4 0 2 - - 0.0
25/07:40pm 25.8 30.7 22.3 81 2.4 CALM 0 0 0 0 - - 0.0
25/07:30pm 26.1 31.0 22.3 79 2.6 CALM 0 2 0 1 - - 0.0
25/07:20pm 26.3 30.4 22.3 78 2.7 N 4 4 2 2 - - 0.0
25/07:10pm 26.5 30.5 22.1 77 3.0 NNE 4 6 2 3 - - 0.0
25/07:00pm 26.8 30.3 21.8 74 3.3 NNE 6 7 3 4 - - 0.0
25/06:50pm 27.0 30.3 21.5 72 3.7 NNE 6 7 3 4 - - 0.0
25/06:40pm 27.2 30.2 21.2 69 4.0 NNE 7 11 4 6 - - 0.0
25/06:30pm 27.3 30.3 21.2 69 4.1 NNE 7 9 4 5 - - 0.0
25/06:20pm 27.5 30.5 21.3 69 4.1 NNE 7 11 4 6 - - 0.0
25/06:10pm 28.0 31.1 21.1 66 4.6 NNE 6 7 3 4 - - 0.0
25/06:00pm 28.5 31.7 21.2 64 4.9 NE 6 7 3 4 - - 0.0
25/05:50pm 28.8 31.6 20.8 62 5.3 NNE 7 9 4 5 - - 0.0
25/05:40pm 28.8 31.5 20.7 61 5.4 NNE 7 11 4 6 - - 0.0
25/05:30pm 28.8 31.3 21.0 62 5.2 NNE 9 11 5 6 - - 0.0
25/05:20pm 28.9 31.8 21.1 62 5.2 NE 7 15 4 8 - - 0.0
25/05:10pm 29.0 31.5 21.0 62 5.3 NNE 9 13 5 7 - - 0.0
25/05:00pm 29.1 31.9 21.5 63 5.1 NNE 9 13 5 7 - - 0.0
25/04:50pm 29.1 31.7 21.2 62 5.3 NNE 9 13 5 7 - - 0.0
25/04:40pm 29.4 32.6 21.6 63 5.2 NNE 7 11 4 6 - - 0.0
25/04:30pm 29.4 31.6 21.1 61 5.5 NNE 11 13 6 7 - - 0.0
25/04:20pm 29.5 31.5 21.6 62 5.3 N 13 17 7 9 - - 0.0
25/04:10pm 29.9 32.0 21.0 59 5.9 NNE 11 15 6 8 - - 0.0
25/04:00pm 30.4 33.3 20.6 55 6.5 NE 6 9 3 5 - - 0.0
25/03:50pm 30.3 32.6 19.5 52 7.1 NE 6 9 3 5 - - 0.0
25/03:40pm 30.2 32.9 20.7 56 6.3 ENE 7 11 4 6 - - 0.0
25/03:30pm 30.3 32.8 19.8 53 6.9 NE 6 7 3 4 - - 0.0
25/03:20pm 30.2 32.8 20.5 56 6.4 NNE 7 11 4 6 - - 0.0
25/03:10pm 30.1 32.1 20.7 57 6.2 NNE 11 13 6 7 - - 0.0
25/03:00pm 30.6 33.4 20.8 56 6.5 NE 7 11 4 6 - - 0.0

Other formats

Comma delimited format used in spreadsheet applications
http://www.bom.gov.au/fwo/IDQ60801/IDQ60801.99115.axf

JavaScript Object Notation format (JSON) in row-major order
http://www.bom.gov.au/fwo/IDQ60801/IDQ60801.99115.json

Data quality

Most of these data are generated automatically and are frequently updated. Quality checks on data are not normally performed. It is possible for incorrect values to appear. Refer to information at About Latest Weather Observations and please check the disclaimer before using these data.